Time;durP1;ratioP1;P1;durP2;ratioP2;P2;SDS_P1;SDS_P2;PMS_P1;PMS_P2;Temp;Humidity;BMP_temperature;BMP_pressure;BME280_temperature;BME280_humidity;BME280_pressure;Samples;Min_cycle;Max_cycle;Signal;HPM_P1;HPM_P2
2022/09/08 00:01:42;;;;;;;81.87;45.87;;;;;;;;;;5067181;28;20056;-63
2022/09/08 00:04:08;;;;;;;90.77;49.17;;;;;;;;;;5067513;28;20127;-63
2022/09/08 00:06:34;;;;;;;67.93;41.73;;;;;;;;;;5067997;28;20047;-63
2022/09/08 00:09:00;;;;;;;68.20;43.33;;;;;;;;;;5067573;28;20037;-62
2022/09/08 00:11:29;;;;;;;56.43;38.40;;;;;;;;;;5067527;28;20056;-63
2022/09/08 00:13:59;;;;;;;72.30;43.87;;;;;;;;;;5067878;28;20053;-63
2022/09/08 00:16:25;;;;;;;87.57;47.90;;;;;;;;;;5067237;28;20040;-63
2022/09/08 00:18:52;;;;;;;61.63;38.43;;;;;;;;;;5067311;28;20044;-63
2022/09/08 00:21:22;;;;;;;86.60;49.60;;;;;;;;;;5067374;28;20503;-63
2022/09/08 00:23:48;;;;;;;106.87;58.43;;;;;;;;;;5066334;28;20048;-63
2022/09/08 00:26:14;;;;;;;94.97;51.87;;;;;;;;;;5067439;28;20506;-63
2022/09/08 00:28:41;;;;;;;59.70;40.27;;;;;;;;;;5067913;28;20131;-62
2022/09/08 00:31:07;;;;;;;81.87;48.37;;;;;;;;;;5066770;28;20083;-63
2022/09/08 00:33:33;;;;;;;120.33;59.40;;;;;;;;;;5067762;28;20609;-63
2022/09/08 00:36:01;;;;;;;71.20;44.40;;;;;;;;;;5067460;28;20098;-63
2022/09/08 00:38:27;;;;;;;55.20;37.23;;;;;;;;;;5067640;28;20487;-63
2022/09/08 00:40:53;;;;;;;84.80;49.90;;;;;;;;;;5071559;28;20040;-63
2022/09/08 00:43:33;;;;;;;64.73;42.03;;;;;;;;;;5071107;28;21048;-63
2022/09/08 00:46:03;;;;;;;120.73;63.03;;;;;;;;;;5071014;28;20413;-63
2022/09/08 00:48:30;;;;;;;126.00;67.87;;;;;;;;;;5071128;28;20456;-63
2022/09/08 00:50:58;;;;;;;129.17;66.10;;;;;;;;;;5071558;28;20078;-63
2022/09/08 00:53:25;;;;;;;99.27;55.97;;;;;;;;;;5070651;28;20041;-62
2022/09/08 00:55:51;;;;;;;140.47;68.37;;;;;;;;;;5063178;28;20494;-62
2022/09/08 00:58:17;;;;;;;116.10;65.67;;;;;;;;;;5071291;28;20048;-63
2022/09/08 01:00:44;;;;;;;136.77;70.47;;;;;;;;;;5071659;28;20053;-63
2022/09/08 01:03:11;;;;;;;103.50;61.83;;;;;;;;;;5071204;28;20068;-63
2022/09/08 01:05:56;;;;;;;109.80;67.50;;;;;;;;;;5070050;28;20414;-62
2022/09/08 01:12:43;;;;;;;146.53;72.37;;;;;;;;;;5064498;28;20048;-63
2022/09/08 01:14:08;;;;;;;147.93;74.17;;;;;;;;;;5070474;28;20185;-62
2022/09/08 01:16:39;;;;;;;105.57;61.93;;;;;;;;;;5070719;28;20044;-63
2022/09/08 01:19:07;;;;;;;99.03;60.87;;;;;;;;;;5063043;28;20123;-63
2022/09/08 01:21:44;;;;;;;80.70;51.03;;;;;;;;;;5070606;28;20044;-63
2022/09/08 01:24:17;;;;;;;145.50;75.20;;;;;;;;;;5063263;28;20040;-63
2022/09/08 01:27:02;;;;;;;131.20;72.57;;;;;;;;;;5069938;28;20502;-63
2022/09/08 01:29:28;;;;;;;126.73;68.77;;;;;;;;;;5070843;28;20094;-63
2022/09/08 01:31:56;;;;;;;149.27;76.73;;;;;;;;;;5070419;28;20052;-63
2022/09/08 01:34:22;;;;;;;127.97;69.20;;;;;;;;;;5070858;28;20052;-63
2022/09/08 01:36:48;;;;;;;89.70;61.57;;;;;;;;;;5070254;28;20102;-63
2022/09/08 01:39:14;;;;;;;113.20;68.80;;;;;;;;;;5070562;28;20033;-63
2022/09/08 01:41:42;;;;;;;118.07;69.63;;;;;;;;;;5070027;28;20044;-63
2022/09/08 01:44:08;;;;;;;119.70;65.47;;;;;;;;;;5070821;28;20051;-63
2022/09/08 01:46:34;;;;;;;87.73;56.13;;;;;;;;;;5070692;28;20127;-63
2022/09/08 01:49:00;;;;;;;87.50;56.43;;;;;;;;;;5070059;28;20045;-63
2022/09/08 01:51:26;;;;;;;99.87;65.23;;;;;;;;;;5070000;28;20048;-63
2022/09/08 01:53:52;;;;;;;119.80;69.00;;;;;;;;;;5069962;28;20049;-63
2022/09/08 01:56:19;;;;;;;87.13;56.83;;;;;;;;;;5069555;28;20634;-63
2022/09/08 01:58:45;;;;;;;128.63;71.27;;;;;;;;;;5070547;28;20059;-63
2022/09/08 02:01:11;;;;;;;88.83;55.37;;;;;;;;;;5070202;28;20079;-63
2022/09/08 02:03:37;;;;;;;96.87;59.20;;;;;;;;;;5070204;28;20472;-63
2022/09/08 02:06:03;;;;;;;98.30;59.47;;;;;;;;;;5068413;28;20419;-63
2022/09/08 02:08:30;;;;;;;91.30;59.53;;;;;;;;;;5069224;28;20161;-63
2022/09/08 02:10:57;;;;;;;98.73;59.83;;;;;;;;;;5069977;28;20048;-63
2022/09/08 02:13:24;;;;;;;112.67;64.67;;;;;;;;;;5069508;28;20167;-63
2022/09/08 02:15:50;;;;;;;111.63;65.30;;;;;;;;;;5069230;28;20060;-63
2022/09/08 02:18:17;;;;;;;104.90;64.57;;;;;;;;;;5068849;28;20049;-63
2022/09/08 02:20:43;;;;;;;98.87;62.50;;;;;;;;;;5069809;28;20581;-63
2022/09/08 02:23:09;;;;;;;93.00;57.27;;;;;;;;;;5069769;28;20044;-62
2022/09/08 02:25:35;;;;;;;109.37;66.60;;;;;;;;;;5069493;28;20047;-63
2022/09/08 02:28:02;;;;;;;101.87;63.93;;;;;;;;;;5069523;28;20059;-63
2022/09/08 02:30:28;;;;;;;102.83;65.43;;;;;;;;;;5069058;28;20072;-63
2022/09/08 02:32:54;;;;;;;113.40;66.43;;;;;;;;;;5069454;28;20094;-63
2022/09/08 02:35:20;;;;;;;90.67;58.63;;;;;;;;;;5069577;28;20051;-63
2022/09/08 02:37:46;;;;;;;97.00;61.00;;;;;;;;;;5069487;28;20470;-63
2022/09/08 02:40:12;;;;;;;74.63;55.43;;;;;;;;;;5069521;28;20130;-63
2022/09/08 02:42:39;;;;;;;80.00;58.73;;;;;;;;;;5068979;28;21173;-63
2022/09/08 02:45:08;;;;;;;85.13;59.50;;;;;;;;;;5067805;28;20127;-63
2022/09/08 02:47:34;;;;;;;99.73;63.47;;;;;;;;;;5068739;28;20101;-63
2022/09/08 02:50:01;;;;;;;67.63;52.50;;;;;;;;;;5069170;28;20043;-63
2022/09/08 02:52:30;;;;;;;99.67;61.20;;;;;;;;;;5068671;28;20114;-63
2022/09/08 02:54:56;;;;;;;86.30;59.07;;;;;;;;;;5068915;28;20059;-63
2022/09/08 02:57:22;;;;;;;76.03;56.27;;;;;;;;;;5068628;28;20127;-64
2022/09/08 02:59:48;;;;;;;114.23;65.70;;;;;;;;;;5068735;28;20453;-63
2022/09/08 03:02:14;;;;;;;96.10;61.33;;;;;;;;;;5067577;28;20045;-63
2022/09/08 03:04:40;;;;;;;74.90;52.70;;;;;;;;;;5068776;28;20051;-63
2022/09/08 03:07:07;;;;;;;94.87;59.97;;;;;;;;;;5068622;28;20414;-63
2022/09/08 03:09:33;;;;;;;98.63;61.90;;;;;;;;;;5068458;28;20088;-63
2022/09/08 03:11:59;;;;;;;99.50;60.90;;;;;;;;;;5068511;28;20037;-63
2022/09/08 03:14:25;;;;;;;92.43;60.60;;;;;;;;;;5068520;28;20552;-63
2022/09/08 03:16:51;;;;;;;77.53;54.77;;;;;;;;;;5067601;28;20044;-63
2022/09/08 03:19:18;;;;;;;73.97;51.47;;;;;;;;;;5068730;28;20426;-63
2022/09/08 03:21:44;;;;;;;85.23;57.23;;;;;;;;;;5067891;28;20048;-63
2022/09/08 03:24:10;;;;;;;98.60;59.93;;;;;;;;;;5068403;28;20180;-63
2022/09/08 03:26:36;;;;;;;78.73;54.70;;;;;;;;;;5068764;28;20048;-63
2022/09/08 03:29:02;;;;;;;61.67;45.20;;;;;;;;;;5068156;28;20090;-63
2022/09/08 03:31:28;;;;;;;70.60;52.10;;;;;;;;;;5068101;28;20113;-63
2022/09/08 03:33:55;;;;;;;65.50;50.77;;;;;;;;;;5068341;28;20587;-63
2022/09/08 03:36:21;;;;;;;72.47;57.33;;;;;;;;;;5067942;28;20051;-63
2022/09/08 03:38:47;;;;;;;84.83;59.97;;;;;;;;;;5068058;28;20043;-63
2022/09/08 03:41:14;;;;;;;73.33;57.17;;;;;;;;;;5068415;28;20127;-63
2022/09/08 03:43:44;;;;;;;82.73;58.63;;;;;;;;;;5068331;28;20422;-63
2022/09/08 03:46:10;;;;;;;103.50;66.27;;;;;;;;;;5067845;28;20122;-63
2022/09/08 03:48:36;;;;;;;100.07;64.53;;;;;;;;;;5067621;28;20051;-63
2022/09/08 03:51:13;;;;;;;73.30;59.10;;;;;;;;;;5066004;28;20133;-63
2022/09/08 03:53:39;;;;;;;77.23;57.53;;;;;;;;;;5068147;28;20041;-63
2022/09/08 03:56:07;;;;;;;81.60;57.53;;;;;;;;;;5067359;28;20402;-63
2022/09/08 03:58:33;;;;;;;101.10;65.10;;;;;;;;;;5068093;28;20059;-63
2022/09/08 04:01:00;;;;;;;105.33;64.83;;;;;;;;;;5067937;28;20067;-63
2022/09/08 04:03:27;;;;;;;102.70;64.57;;;;;;;;;;5067851;28;20044;-63
2022/09/08 04:05:53;;;;;;;84.50;61.63;;;;;;;;;;5059726;28;20047;-63
2022/09/08 04:08:19;;;;;;;108.43;66.13;;;;;;;;;;5067531;28;20437;-63
2022/09/08 04:10:45;;;;;;;118.30;70.27;;;;;;;;;;5066934;28;20506;-63
2022/09/08 04:13:12;;;;;;;129.40;73.87;;;;;;;;;;5066828;28;20158;-63
2022/09/08 04:15:38;;;;;;;105.80;66.53;;;;;;;;;;5067341;28;21332;-63
2022/09/08 04:18:05;;;;;;;95.47;62.80;;;;;;;;;;5067058;28;20131;-63
2022/09/08 04:20:31;;;;;;;103.00;66.20;;;;;;;;;;5067997;28;20036;-63
2022/09/08 04:22:57;;;;;;;99.20;64.20;;;;;;;;;;5067757;28;20044;-62
2022/09/08 04:25:23;;;;;;;95.07;66.10;;;;;;;;;;5067408;28;20052;-63
2022/09/08 04:27:49;;;;;;;113.83;70.33;;;;;;;;;;5067782;28;20114;-63
2022/09/08 04:30:15;;;;;;;97.97;65.70;;;;;;;;;;5067538;28;20044;-63
2022/09/08 04:32:42;;;;;;;114.07;68.83;;;;;;;;;;5067424;28;20070;-63
2022/09/08 04:35:08;;;;;;;105.10;65.13;;;;;;;;;;5067431;28;20048;-63
2022/09/08 04:37:35;;;;;;;112.63;68.73;;;;;;;;;;5067006;28;20140;-63
2022/09/08 04:40:01;;;;;;;124.37;70.27;;;;;;;;;;5067836;28;20131;-63
2022/09/08 04:42:28;;;;;;;104.80;68.40;;;;;;;;;;5067136;28;20127;-63
2022/09/08 04:44:54;;;;;;;116.60;68.23;;;;;;;;;;5067854;28;20041;-63
2022/09/08 04:47:20;;;;;;;123.23;72.60;;;;;;;;;;5067156;28;20047;-63
2022/09/08 04:49:46;;;;;;;101.67;66.83;;;;;;;;;;5067028;28;20053;-63
2022/09/08 04:52:12;;;;;;;114.17;68.60;;;;;;;;;;5067774;28;20060;-63
2022/09/08 04:54:38;;;;;;;106.97;68.13;;;;;;;;;;5067083;28;20053;-63
2022/09/08 04:57:04;;;;;;;136.93;76.30;;;;;;;;;;5066984;28;20171;-63
2022/09/08 04:59:30;;;;;;;418.30;98.50;;;;;;;;;;5067394;28;20119;-62
2022/09/08 05:01:56;;;;;;;382.17;83.67;;;;;;;;;;5066883;28;20037;-62
2022/09/08 05:04:22;;;;;;;442.57;130.07;;;;;;;;;;5067339;28;20041;-62
2022/09/08 05:06:49;;;;;;;321.27;107.47;;;;;;;;;;5067525;28;20037;-62
2022/09/08 05:09:15;;;;;;;429.73;126.83;;;;;;;;;;5066940;28;20088;-62
2022/09/08 05:11:41;;;;;;;407.73;121.23;;;;;;;;;;5067069;28;20098;-62
2022/09/08 05:14:07;;;;;;;452.13;130.77;;;;;;;;;;5066693;28;20109;-61
2022/09/08 05:16:33;;;;;;;531.57;141.80;;;;;;;;;;5066760;28;20547;-62
2022/09/08 05:19:01;;;;;;;366.07;111.27;;;;;;;;;;5067346;28;20076;-62
2022/09/08 05:21:28;;;;;;;297.90;107.93;;;;;;;;;;5066860;28;20442;-61
2022/09/08 05:23:55;;;;;;;236.73;102.27;;;;;;;;;;5066944;28;20044;-61
2022/09/08 05:26:21;;;;;;;531.93;141.93;;;;;;;;;;5069748;28;20087;-62
2022/09/08 05:28:48;;;;;;;300.87;107.07;;;;;;;;;;5069980;28;20055;-61
2022/09/08 05:31:19;;;;;;;350.27;110.87;;;;;;;;;;5070410;28;20032;-62
2022/09/08 05:33:45;;;;;;;290.33;106.47;;;;;;;;;;5070463;28;20057;-61
2022/09/08 05:36:25;;;;;;;368.57;118.03;;;;;;;;;;5069954;28;20413;-61
2022/09/08 05:38:51;;;;;;;371.33;119.63;;;;;;;;;;5069722;28;20049;-62
2022/09/08 05:41:18;;;;;;;286.77;106.83;;;;;;;;;;5070070;28;20384;-62
2022/09/08 05:43:44;;;;;;;407.97;127.23;;;;;;;;;;5069485;28;20059;-61
2022/09/08 05:46:11;;;;;;;332.13;115.57;;;;;;;;;;5070269;28;20032;-62
2022/09/08 05:48:37;;;;;;;368.87;121.07;;;;;;;;;;5069631;28;20045;-62
2022/09/08 05:51:07;;;;;;;199.50;92.60;;;;;;;;;;5070090;28;20508;-62
2022/09/08 05:53:33;;;;;;;329.50;108.63;;;;;;;;;;5069907;28;20127;-62
2022/09/08 05:56:01;;;;;;;516.33;142.77;;;;;;;;;;5069546;28;20123;-62
2022/09/08 05:58:28;;;;;;;237.77;100.03;;;;;;;;;;5069703;28;20045;-61
2022/09/08 06:00:55;;;;;;;171.57;89.60;;;;;;;;;;5069763;28;20542;-62
2022/09/08 06:03:21;;;;;;;136.17;79.87;;;;;;;;;;5068934;28;20474;-63
2022/09/08 06:05:47;;;;;;;135.43;77.50;;;;;;;;;;5068741;28;20070;-63
2022/09/08 06:08:13;;;;;;;154.37;81.67;;;;;;;;;;5069498;28;20044;-63
2022/09/08 06:10:39;;;;;;;241.30;96.80;;;;;;;;;;5069750;28;20052;-63
2022/09/08 06:13:05;;;;;;;101.57;64.00;;;;;;;;;;5068739;28;20059;-63
2022/09/08 06:15:31;;;;;;;144.93;73.67;;;;;;;;;;5069265;28;20543;-63
2022/09/08 06:18:01;;;;;;;251.53;82.00;;;;;;;;;;5069484;28;20517;-62
2022/09/08 06:20:27;;;;;;;214.20;85.73;;;;;;;;;;5069526;28;20201;-63
2022/09/08 06:22:53;;;;;;;317.27;100.57;;;;;;;;;;5068748;28;20434;-63
2022/09/08 06:25:19;;;;;;;212.47;86.80;;;;;;;;;;5069606;28;20094;-63
2022/09/08 06:27:50;;;;;;;251.63;94.77;;;;;;;;;;5069684;28;20044;-63
2022/09/08 06:30:18;;;;;;;223.50;88.87;;;;;;;;;;5061389;28;20043;-63
2022/09/08 06:32:48;;;;;;;208.70;87.63;;;;;;;;;;5069367;28;20090;-63
2022/09/08 06:35:20;;;;;;;450.87;123.27;;;;;;;;;;5068898;28;20047;-63
2022/09/08 06:37:52;;;;;;;231.23;89.85;;;;;;;;;;5068754;28;20131;-63
2022/09/08 06:40:37;;;;;;;168.97;78.07;;;;;;;;;;5061050;28;20040;-63
2022/09/08 06:43:03;;;;;;;187.43;81.40;;;;;;;;;;5069150;28;20055;-63
2022/09/08 06:45:31;;;;;;;189.10;80.33;;;;;;;;;;5069032;28;20048;-63
2022/09/08 06:48:06;;;;;;;234.67;88.27;;;;;;;;;;5069262;28;20055;-63
2022/09/08 06:50:33;;;;;;;193.27;79.27;;;;;;;;;;5069350;28;20044;-63
2022/09/08 06:53:02;;;;;;;182.23;79.73;;;;;;;;;;5068315;28;20045;-63
2022/09/08 06:55:36;;;;;;;118.87;65.93;;;;;;;;;;5068636;28;20037;-63
2022/09/08 06:58:21;;;;;;;154.40;71.80;;;;;;;;;;5068721;28;20048;-63
2022/09/08 07:01:25;;;;;;;105.07;61.87;;;;;;;;;;5067554;28;20525;-63
2022/09/08 07:04:17;;;;;;;174.67;81.30;;;;;;;;;;5002609;28;20049;-63
2022/09/08 07:06:48;;;;;;;148.83;77.47;;;;;;;;;;5006241;28;20504;-63
2022/09/08 07:09:20;;;;;;;135.97;71.87;;;;;;;;;;5048913;28;20118;-63
2022/09/08 07:11:51;;;;;;;109.13;65.23;;;;;;;;;;5067280;28;20140;-63
2022/09/08 07:14:17;;;;;;;180.13;77.33;;;;;;;;;;5068367;28;20101;-63
2022/09/08 07:16:49;;;;;;;141.03;65.27;;;;;;;;;;5068214;28;20053;-63
2022/09/08 07:19:41;;;;;;;100.43;54.27;;;;;;;;;;5067573;28;20048;-63
2022/09/08 07:22:26;;;;;;;78.20;45.92;;;;;;;;;;5067982;28;20045;-63
2022/09/08 07:24:55;;;;;;;110.37;49.97;;;;;;;;;;5068522;28;20056;-63
2022/09/08 07:27:21;;;;;;;70.73;39.43;;;;;;;;;;5067481;28;20580;-63
2022/09/08 07:29:48;;;;;;;44.47;28.77;;;;;;;;;;5066969;28;20089;-63
2022/09/08 07:32:21;;;;;;;41.53;27.30;;;;;;;;;;5068007;28;20476;-63
2022/09/08 07:34:49;;;;;;;60.07;32.00;;;;;;;;;;5068495;28;20055;-63
2022/09/08 07:37:29;;;;;;;64.03;35.40;;;;;;;;;;5067965;28;20040;-63
2022/09/08 07:39:56;;;;;;;51.17;28.17;;;;;;;;;;5067471;28;20041;-63
2022/09/08 07:42:22;;;;;;;44.23;26.70;;;;;;;;;;5067364;28;20049;-64
2022/09/08 07:44:54;;;;;;;34.43;23.53;;;;;;;;;;5068344;28;20044;-63
2022/09/08 07:47:42;;;;;;;49.53;26.20;;;;;;;;;;5067253;28;20135;-63
2022/09/08 07:53:35;;;;;;;36.63;20.73;;;;;;;;;;5067228;28;20044;-63
2022/09/08 07:56:13;;;;;;;30.80;20.50;;;;;;;;;;5057238;28;20056;-63
2022/09/08 07:58:45;;;;;;;26.97;15.63;;;;;;;;;;5063703;28;20044;-63
2022/09/08 08:01:16;;;;;;;33.17;19.95;;;;;;;;;;5064501;28;20050;-63
2022/09/08 08:04:08;;;;;;;27.93;18.57;;;;;;;;;;5067994;28;20430;-62
2022/09/08 08:06:40;;;;;;;38.90;22.63;;;;;;;;;;5036662;28;20397;-63
2022/09/08 08:09:14;;;;;;;27.60;17.03;;;;;;;;;;5067874;28;20080;-63
2022/09/08 08:11:47;;;;;;;40.57;22.07;;;;;;;;;;5068352;28;20395;-63
2022/09/08 08:14:16;;;;;;;42.70;22.90;;;;;;;;;;5067213;28;20044;-63
2022/09/08 08:16:45;;;;;;;37.80;21.37;;;;;;;;;;5059056;28;20498;-63
2022/09/08 08:19:19;;;;;;;33.87;19.03;;;;;;;;;;5066399;28;20487;-63
2022/09/08 08:21:51;;;;;;;30.20;16.90;;;;;;;;;;5060065;28;20044;-63
2022/09/08 08:24:17;;;;;;;48.87;24.07;;;;;;;;;;5067556;28;20127;-63
2022/09/08 08:26:55;;;;;;;31.60;18.50;;;;;;;;;;5067430;28;20190;-63
2022/09/08 08:29:22;;;;;;;34.67;21.40;;;;;;;;;;5067855;28;20056;-63
2022/09/08 08:31:51;;;;;;;55.43;26.27;;;;;;;;;;5067722;28;20045;-63
2022/09/08 08:34:21;;;;;;;49.93;24.00;;;;;;;;;;5067275;28;20036;-63
2022/09/08 08:36:49;;;;;;;30.00;18.43;;;;;;;;;;5059132;28;20487;-64
2022/09/08 08:39:19;;;;;;;34.43;19.87;;;;;;;;;;5067430;28;20052;-64
2022/09/08 08:42:04;;;;;;;27.87;15.67;;;;;;;;;;5066743;28;20065;-64
2022/09/08 08:44:30;;;;;;;25.70;16.70;;;;;;;;;;5067558;28;20032;-63
2022/09/08 08:47:11;;;;;;;36.73;19.00;;;;;;;;;;5067385;28;20041;-63
2022/09/08 08:49:56;;;;;;;25.67;15.87;;;;;;;;;;5066637;28;20048;-63
2022/09/08 08:52:27;;;;;;;32.63;18.07;;;;;;;;;;5067569;28;20049;-63
2022/09/08 08:55:01;;;;;;;36.17;17.80;;;;;;;;;;5059769;28;20040;-63
2022/09/08 08:57:36;;;;;;;23.77;15.77;;;;;;;;;;5067137;28;20070;-63
2022/09/08 09:00:07;;;;;;;24.70;14.87;;;;;;;;;;5061722;28;20105;-63
2022/09/08 09:02:52;;;;;;;44.33;19.53;;;;;;;;;;5070497;28;20043;-63
2022/09/08 09:05:50;;;;;;;29.17;17.30;;;;;;;;;;5070595;28;20049;-63
2022/09/08 09:08:25;;;;;;;39.33;19.50;;;;;;;;;;5020940;28;20040;-63
2022/09/08 09:11:00;;;;;;;26.20;16.43;;;;;;;;;;5070480;28;20052;-64
2022/09/08 09:13:45;;;;;;;25.50;16.27;;;;;;;;;;5070470;28;20037;-61
2022/09/08 09:16:13;;;;;;;32.73;18.50;;;;;;;;;;5070625;28;20147;-61
2022/09/08 09:18:55;;;;;;;27.97;16.50;;;;;;;;;;5070621;28;20527;-61
2022/09/08 09:21:51;;;;;;;14.57;8.47;;;;;;;;;;5070633;28;20049;-62
2022/09/08 09:24:36;;;;;;;12.57;7.50;;;;;;;;;;5053948;28;20597;-61
2022/09/08 09:27:07;;;;;;;10.53;7.10;;;;;;;;;;5070823;28;20056;-61
2022/09/08 09:29:37;;;;;;;12.93;8.90;;;;;;;;;;5070213;28;20037;-61
2022/09/08 09:32:15;;;;;;;12.97;7.57;;;;;;;;;;5070273;28;20047;-61
2022/09/08 09:34:53;;;;;;;12.80;7.27;;;;;;;;;;5070692;28;20047;-61
2022/09/08 09:37:33;;;;;;;13.47;7.70;;;;;;;;;;5070523;28;20131;-62
2022/09/08 09:40:18;;;;;;;21.30;8.90;;;;;;;;;;5070021;28;20461;-61
2022/09/08 09:43:12;;;;;;;13.53;8.60;;;;;;;;;;5070224;28;20057;-61
2022/09/08 09:45:52;;;;;;;18.13;9.63;;;;;;;;;;5066338;28;20093;-61
2022/09/08 09:48:21;;;;;;;15.10;9.40;;;;;;;;;;5063572;28;20048;-61
2022/09/08 09:50:50;;;;;;;13.77;9.23;;;;;;;;;;5070123;28;20513;-61
2022/09/08 09:53:34;;;;;;;25.93;10.43;;;;;;;;;;5070008;28;20076;-61
2022/09/08 09:56:19;;;;;;;28.07;11.63;;;;;;;;;;5069932;28;20119;-61
2022/09/08 09:58:48;;;;;;;21.50;9.67;;;;;;;;;;5070533;28;20429;-61
2022/09/08 10:01:20;;;;;;;13.97;9.23;;;;;;;;;;5061653;28;20110;-61
2022/09/08 10:03:57;;;;;;;16.73;9.83;;;;;;;;;;5070017;28;20052;-62
2022/09/08 10:06:35;;;;;;;21.57;12.30;;;;;;;;;;5063343;28;20074;-63
2022/09/08 10:09:20;;;;;;;17.43;9.33;;;;;;;;;;5069408;28;20411;-63
2022/09/08 10:12:24;;;;;;;14.83;9.23;;;;;;;;;;5069364;28;20056;-62
2022/09/08 10:15:09;;;;;;;20.47;11.73;;;;;;;;;;4986718;28;20042;-63
2022/09/08 10:17:35;;;;;;;12.20;8.77;;;;;;;;;;4987953;28;20089;-62
2022/09/08 10:20:03;;;;;;;11.93;8.23;;;;;;;;;;5036910;28;20066;-63
2022/09/08 10:22:41;;;;;;;11.07;6.80;;;;;;;;;;5068831;28;20040;-63
2022/09/08 10:25:26;;;;;;;9.63;7.30;;;;;;;;;;5069475;28;20453;-63
2022/09/08 10:28:15;;;;;;;11.47;7.43;;;;;;;;;;5069693;28;20095;-62
2022/09/08 10:31:00;;;;;;;19.50;10.63;;;;;;;;;;5069462;28;20048;-63
2022/09/08 10:33:45;;;;;;;15.33;8.87;;;;;;;;;;5062418;28;20056;-63
2022/09/08 10:36:12;;;;;;;10.67;7.70;;;;;;;;;;5069106;28;20098;-62
2022/09/08 10:38:47;;;;;;;9.63;7.27;;;;;;;;;;5069175;28;20106;-63
2022/09/08 10:41:31;;;;;;;13.93;9.23;;;;;;;;;;5069081;28;20048;-62
2022/09/08 10:44:07;;;;;;;14.23;8.63;;;;;;;;;;5069538;28;20048;-63
2022/09/08 10:46:42;;;;;;;16.77;9.77;;;;;;;;;;5062261;28;20072;-63
2022/09/08 10:49:07;;;;;;;10.87;7.63;;;;;;;;;;5069062;28;20044;-63
2022/09/08 10:51:46;;;;;;;10.13;8.10;;;;;;;;;;5067631;28;20044;-63
2022/09/08 10:54:34;;;;;;;12.27;7.87;;;;;;;;;;5067386;28;20083;-62
2022/09/08 10:57:01;;;;;;;11.80;8.10;;;;;;;;;;5068600;28;20647;-63
2022/09/08 10:59:44;;;;;;;10.90;7.70;;;;;;;;;;5068482;28;20133;-63
2022/09/08 11:02:16;;;;;;;11.10;8.33;;;;;;;;;;5068588;28;20040;-63
2022/09/08 11:04:45;;;;;;;11.83;8.63;;;;;;;;;;5068840;28;20048;-63
2022/09/08 11:07:40;;;;;;;14.20;9.57;;;;;;;;;;5068584;28;20052;-63
2022/09/08 11:10:06;;;;;;;16.80;9.87;;;;;;;;;;5068337;28;20052;-63
2022/09/08 11:12:45;;;;;;;14.80;9.70;;;;;;;;;;5068583;28;20578;-63
2022/09/08 11:15:30;;;;;;;16.37;9.77;;;;;;;;;;5068689;28;20047;-63
2022/09/08 11:18:08;;;;;;;16.93;10.33;;;;;;;;;;5068054;28;20044;-63
2022/09/08 11:20:46;;;;;;;15.73;10.20;;;;;;;;;;5067779;28;20521;-63
2022/09/08 11:23:12;;;;;;;12.50;8.87;;;;;;;;;;5060949;28;20041;-63
2022/09/08 11:25:57;;;;;;;14.80;9.90;;;;;;;;;;5068074;28;20447;-63
2022/09/08 11:28:42;;;;;;;14.80;10.03;;;;;;;;;;5062204;28;20202;-63
2022/09/08 11:31:22;;;;;;;18.67;10.30;;;;;;;;;;5068031;28;20048;-63
2022/09/08 11:33:51;;;;;;;17.10;10.90;;;;;;;;;;5068270;28;20068;-63
2022/09/08 11:36:20;;;;;;;19.00;12.43;;;;;;;;;;5059902;28;20510;-63
2022/09/08 11:38:58;;;;;;;12.03;9.97;;;;;;;;;;5068003;28;20045;-62
2022/09/08 11:41:27;;;;;;;13.33;10.67;;;;;;;;;;5060470;28;20075;-63
2022/09/08 11:43:59;;;;;;;16.60;11.43;;;;;;;;;;5067625;28;20056;-63
2022/09/08 11:46:52;;;;;;;15.97;10.53;;;;;;;;;;5059919;28;20078;-63
2022/09/08 11:49:20;;;;;;;16.20;11.17;;;;;;;;;;5044267;28;20044;-63
2022/09/08 11:51:54;;;;;;;12.80;10.67;;;;;;;;;;5067873;28;20049;-63
2022/09/08 11:54:27;;;;;;;12.13;9.87;;;;;;;;;;5066736;28;20398;-63
2022/09/08 11:56:53;;;;;;;14.90;10.53;;;;;;;;;;5067793;28;20536;-63
2022/09/08 11:59:28;;;;;;;13.20;10.07;;;;;;;;;;5049542;28;20067;-63
2022/09/08 12:02:13;;;;;;;13.23;10.73;;;;;;;;;;5067360;28;20465;-63
2022/09/08 12:04:44;;;;;;;15.67;11.40;;;;;;;;;;5067753;28;20056;-63
2022/09/08 12:07:25;;;;;;;13.63;11.23;;;;;;;;;;5067597;28;20040;-63
2022/09/08 12:10:02;;;;;;;16.00;11.13;;;;;;;;;;5060390;28;20052;-64
2022/09/08 12:12:41;;;;;;;16.83;12.07;;;;;;;;;;5067257;28;20540;-63
2022/09/08 12:15:19;;;;;;;13.80;11.60;;;;;;;;;;5065464;28;20045;-64
2022/09/08 12:18:04;;;;;;;14.63;10.77;;;;;;;;;;5067427;28;20060;-64
2022/09/08 12:20:49;;;;;;;14.43;11.13;;;;;;;;;;5067525;28;20048;-63
2022/09/08 12:23:36;;;;;;;12.77;10.10;;;;;;;;;;5061493;28;20044;-63
2022/09/08 12:26:08;;;;;;;19.40;13.53;;;;;;;;;;5059714;28;20105;-63
2022/09/08 12:28:34;;;;;;;14.33;11.57;;;;;;;;;;5066869;28;20098;-63
2022/09/08 12:31:00;;;;;;;17.17;12.57;;;;;;;;;;5067311;28;20044;-64
2022/09/08 12:33:38;;;;;;;13.43;10.77;;;;;;;;;;5067782;28;20094;-63
2022/09/08 12:36:17;;;;;;;14.80;11.73;;;;;;;;;;5070807;28;20055;-63
2022/09/08 12:38:46;;;;;;;19.50;12.87;;;;;;;;;;5070178;28;20048;-63
2022/09/08 12:41:39;;;;;;;11.63;10.43;;;;;;;;;;5070873;28;20051;-64
2022/09/08 12:44:17;;;;;;;12.83;10.57;;;;;;;;;;5040510;28;20135;-63
2022/09/08 12:46:43;;;;;;;12.30;11.03;;;;;;;;;;5062882;28;20151;-63
2022/09/08 12:49:27;;;;;;;14.10;11.10;;;;;;;;;;5071319;28;20075;-63
2022/09/08 12:51:57;;;;;;;12.97;9.80;;;;;;;;;;5070978;28;20049;-63
2022/09/08 12:54:42;;;;;;;13.50;11.10;;;;;;;;;;5071061;28;20048;-63
2022/09/08 12:57:17;;;;;;;15.33;12.37;;;;;;;;;;5071084;28;20048;-63
2022/09/08 13:00:02;;;;;;;12.47;11.20;;;;;;;;;;5063994;28;20064;-62
2022/09/08 13:02:30;;;;;;;14.40;11.13;;;;;;;;;;5070697;28;20060;-63
2022/09/08 13:05:15;;;;;;;15.23;10.53;;;;;;;;;;5071243;28;20127;-62
2022/09/08 13:07:41;;;;;;;15.23;12.00;;;;;;;;;;5070729;28;20046;-62
2022/09/08 13:10:10;;;;;;;11.43;10.20;;;;;;;;;;5070961;28;20119;-62
2022/09/08 13:12:42;;;;;;;12.47;10.43;;;;;;;;;;5071117;28;20037;-62
2022/09/08 13:15:11;;;;;;;11.20;9.43;;;;;;;;;;5070867;28;20415;-63
2022/09/08 13:17:56;;;;;;;17.03;11.27;;;;;;;;;;5069960;28;20406;-62
2022/09/08 13:20:40;;;;;;;13.87;11.17;;;;;;;;;;5066332;28;20418;-62
2022/09/08 13:23:16;;;;;;;15.23;10.53;;;;;;;;;;5070444;28;20106;-62
2022/09/08 13:25:42;;;;;;;12.93;10.13;;;;;;;;;;5070312;28;20094;-62
2022/09/08 13:28:11;;;;;;;11.03;9.70;;;;;;;;;;5070800;28;20044;-61
2022/09/08 13:31:09;;;;;;;16.07;12.40;;;;;;;;;;5070226;28;20571;-62
2022/09/08 13:33:38;;;;;;;14.40;9.63;;;;;;;;;;5026001;28;20048;-62
2022/09/08 13:36:09;;;;;;;11.73;9.73;;;;;;;;;;5070909;28;20470;-61
2022/09/08 13:38:51;;;;;;;14.23;11.03;;;;;;;;;;5070249;28;20044;-61
2022/09/08 13:41:17;;;;;;;12.53;9.93;;;;;;;;;;5063301;28;20051;-61
2022/09/08 13:43:53;;;;;;;10.23;9.23;;;;;;;;;;5070314;28;20131;-61
2022/09/08 13:46:32;;;;;;;11.77;9.67;;;;;;;;;;5062643;28;20040;-61
2022/09/08 13:49:07;;;;;;;8.47;7.43;;;;;;;;;;5069818;28;20604;-61
2022/09/08 13:51:36;;;;;;;12.00;7.80;;;;;;;;;;5069846;28;20044;-61
2022/09/08 13:54:21;;;;;;;7.13;5.57;;;;;;;;;;5069788;28;20112;-61
2022/09/08 13:56:53;;;;;;;9.30;5.73;;;;;;;;;;5068853;28;20053;-61
2022/09/08 13:59:37;;;;;;;9.30;6.68;;;;;;;;;;5062112;28;20045;-61
2022/09/08 14:02:17;;;;;;;14.63;9.07;;;;;;;;;;5069154;28;20156;-61
2022/09/08 14:04:46;;;;;;;7.60;5.77;;;;;;;;;;5070353;28;20044;-61
2022/09/08 14:07:25;;;;;;;3.17;1.60;;;;;;;;;;5069089;28;20054;-61
2022/09/08 14:10:26;;;;;;;3.00;2.13;;;;;;;;;;5068794;28;20048;-61
2022/09/08 14:12:53;;;;;;;5.87;2.80;;;;;;;;;;5004106;28;20113;-60
2022/09/08 14:15:27;;;;;;;8.30;3.47;;;;;;;;;;5053110;28;20048;-60
2022/09/08 14:18:03;;;;;;;5.27;3.83;;;;;;;;;;5069674;28;20052;-61
2022/09/08 14:20:48;;;;;;;9.03;4.50;;;;;;;;;;5069332;28;20585;-61
2022/09/08 14:23:26;;;;;;;9.23;6.63;;;;;;;;;;5068831;28;20041;-61
2022/09/08 14:26:12;;;;;;;9.43;5.43;;;;;;;;;;5069526;28;20036;-61
2022/09/08 14:28:45;;;;;;;10.07;5.57;;;;;;;;;;5062481;28;20051;-61
2022/09/08 14:31:25;;;;;;;7.50;5.22;;;;;;;;;;5069034;28;20075;-61
2022/09/08 14:33:52;;;;;;;7.17;4.90;;;;;;;;;;5069276;28;20045;-61
2022/09/08 14:36:22;;;;;;;7.27;4.30;;;;;;;;;;5068731;28;20066;-61
2022/09/08 14:39:06;;;;;;;6.43;4.30;;;;;;;;;;5070147;28;20080;-61
2022/09/08 14:41:53;;;;;;;6.87;4.33;;;;;;;;;;5068495;28;20131;-61
2022/09/08 14:44:23;;;;;;;7.10;4.73;;;;;;;;;;5069642;28;20064;-60
2022/09/08 14:46:59;;;;;;;7.30;3.83;;;;;;;;;;5069615;28;20049;-60
2022/09/08 14:49:37;;;;;;;9.70;5.27;;;;;;;;;;5068917;28;20049;-60
2022/09/08 14:52:15;;;;;;;6.93;4.17;;;;;;;;;;5069501;28;20123;-60